createdAt,value
2022-10-16T00:01:30.762Z,14.81
2022-10-16T00:03:59.888Z,14.78
2022-10-16T00:06:29.336Z,14.82
2022-10-16T00:08:57.088Z,14.81
2022-10-16T00:11:37.622Z,14.85
2022-10-16T00:14:11.489Z,14.84
2022-10-16T00:16:39.295Z,14.86
2022-10-16T00:19:06.555Z,14.84
2022-10-16T00:21:34.556Z,14.81
2022-10-16T00:24:06.269Z,14.78
2022-10-16T00:26:35.774Z,14.81
2022-10-16T00:29:04.254Z,14.81
2022-10-16T00:31:32.014Z,14.75
2022-10-16T00:33:59.030Z,14.71
2022-10-16T00:36:27.448Z,14.80
2022-10-16T00:38:58.477Z,14.77
2022-10-16T00:41:26.540Z,14.78
2022-10-16T00:43:56.246Z,14.79
2022-10-16T00:46:43.175Z,14.80
2022-10-16T00:49:11.471Z,14.79
2022-10-16T00:51:48.631Z,14.78
2022-10-16T00:54:26.957Z,14.70
2022-10-16T00:56:56.319Z,14.54
2022-10-16T00:59:34.950Z,14.63
2022-10-16T01:02:04.356Z,14.65
2022-10-16T01:04:39.835Z,14.57
2022-10-16T01:07:37.268Z,14.74
2022-10-16T01:10:22.167Z,14.68
2022-10-16T01:13:33.913Z,14.70
2022-10-16T01:16:11.334Z,14.70
2022-10-16T01:18:52.253Z,14.75
2022-10-16T01:21:36.020Z,14.76
2022-10-16T01:24:41.556Z,14.73
2022-10-16T01:27:11.786Z,14.74
2022-10-16T01:29:51.221Z,14.76
2022-10-16T01:32:41.147Z,14.81
2022-10-16T01:35:39.827Z,14.86
2022-10-16T01:38:32.723Z,14.88
2022-10-16T01:41:16.232Z,14.97
2022-10-16T01:44:07.803Z,14.80
2022-10-16T01:46:40.927Z,15.02
2022-10-16T01:49:12.441Z,14.69
2022-10-16T01:51:39.921Z,14.87
2022-10-16T01:54:11.676Z,14.98
2022-10-16T01:56:40.678Z,14.83
2022-10-16T01:59:14.662Z,15.12
2022-10-16T02:01:48.314Z,14.83
2022-10-16T02:04:26.370Z,15.02
2022-10-16T02:06:54.867Z,14.85
2022-10-16T02:09:22.435Z,14.99
2022-10-16T02:11:55.244Z,15.02
2022-10-16T02:14:25.559Z,15.06
2022-10-16T02:16:52.565Z,15.06
2022-10-16T02:19:22.590Z,15.10
2022-10-16T02:22:05.571Z,15.13
2022-10-16T02:24:49.716Z,15.13
2022-10-16T02:27:43.713Z,15.13
2022-10-16T02:30:41.770Z,15.16
2022-10-16T02:33:14.653Z,14.96
2022-10-16T02:35:44.413Z,15.21
2022-10-16T02:38:13.439Z,15.10
2022-10-16T02:40:41.705Z,15.26
2022-10-16T02:43:10.474Z,15.20
2022-10-16T02:45:37.691Z,15.26
2022-10-16T02:48:04.978Z,15.30
2022-10-16T02:50:31.884Z,15.27
2022-10-16T02:52:58.809Z,15.34
2022-10-16T02:55:26.323Z,15.36
2022-10-16T02:57:53.425Z,15.38
2022-10-16T03:00:20.787Z,15.31
2022-10-16T03:02:48.228Z,15.19
2022-10-16T03:05:15.585Z,15.27
2022-10-16T03:07:42.514Z,15.43
2022-10-16T03:10:09.712Z,15.33
2022-10-16T03:12:36.738Z,15.45
2022-10-16T03:15:04.926Z,15.42
2022-10-16T03:17:33.913Z,15.47
2022-10-16T03:20:00.967Z,15.45
2022-10-16T03:22:28.486Z,15.46
2022-10-16T03:24:55.577Z,15.49
2022-10-16T03:27:22.956Z,15.49
2022-10-16T03:29:49.934Z,15.57
2022-10-16T03:32:17.041Z,15.51
2022-10-16T03:34:44.485Z,15.46
2022-10-16T03:37:11.447Z,15.45
2022-10-16T03:39:38.589Z,15.47
2022-10-16T03:42:05.687Z,15.45
2022-10-16T03:44:32.633Z,15.44
2022-10-16T03:46:59.729Z,15.42
2022-10-16T03:49:26.610Z,15.45
2022-10-16T03:51:53.512Z,15.44
2022-10-16T03:54:20.398Z,15.41
2022-10-16T03:56:47.365Z,15.44
2022-10-16T03:59:14.301Z,15.44
2022-10-16T04:01:41.458Z,15.42
2022-10-16T04:04:08.325Z,15.35
2022-10-16T04:06:35.245Z,15.35
2022-10-16T04:09:02.145Z,15.34
2022-10-16T04:11:29.087Z,15.33
2022-10-16T04:13:56.350Z,15.29
2022-10-16T04:16:23.445Z,15.34
2022-10-16T04:18:50.528Z,15.34
2022-10-16T04:21:17.684Z,15.35
2022-10-16T04:23:44.735Z,15.37
2022-10-16T04:26:13.128Z,15.25
2022-10-16T04:28:41.123Z,15.36
2022-10-16T04:31:08.326Z,15.34
2022-10-16T04:33:35.420Z,15.36
2022-10-16T04:36:04.556Z,15.32
2022-10-16T04:38:31.919Z,15.21
2022-10-16T04:40:58.846Z,15.16
2022-10-16T04:43:25.891Z,15.17
2022-10-16T04:45:53.117Z,15.21
2022-10-16T04:48:20.048Z,15.14
2022-10-16T04:50:51.650Z,15.25
2022-10-16T04:53:22.697Z,15.20
2022-10-16T04:55:49.647Z,15.23
2022-10-16T04:58:16.626Z,15.23
2022-10-16T05:00:43.659Z,15.19
2022-10-16T05:03:10.759Z,15.17
2022-10-16T05:05:37.864Z,15.19
2022-10-16T05:08:05.008Z,15.14
2022-10-16T05:10:32.108Z,15.11
2022-10-16T05:12:59.153Z,15.12
2022-10-16T05:15:26.231Z,15.18
2022-10-16T05:17:56.813Z,15.04
2022-10-16T05:20:24.699Z,15.14
2022-10-16T05:22:51.924Z,15.16
2022-10-16T05:25:19.495Z,15.17
2022-10-16T05:27:50.371Z,15.18
2022-10-16T05:30:19.204Z,15.12
2022-10-16T05:32:52.507Z,15.25
2022-10-16T05:35:20.406Z,15.25
2022-10-16T05:37:48.769Z,15.25
2022-10-16T05:40:17.135Z,15.23
2022-10-16T05:42:44.109Z,15.26
2022-10-16T05:45:13.027Z,15.23
2022-10-16T05:47:40.662Z,15.23
2022-10-16T05:50:08.353Z,15.27
2022-10-16T05:52:35.515Z,15.29
2022-10-16T05:55:03.034Z,15.22
2022-10-16T05:57:30.370Z,15.27
2022-10-16T05:59:57.652Z,15.01
2022-10-16T06:02:24.924Z,15.22
2022-10-16T06:04:54.793Z,15.26
2022-10-16T06:07:23.624Z,15.32
2022-10-16T06:09:54.481Z,15.30
2022-10-16T06:12:22.089Z,15.40
2022-10-16T06:14:49.606Z,15.38
2022-10-16T06:17:16.826Z,15.44
2022-10-16T06:19:43.801Z,15.47
2022-10-16T06:22:10.810Z,15.26
2022-10-16T06:24:37.821Z,15.53
2022-10-16T06:27:05.947Z,15.57
2022-10-16T06:29:33.481Z,15.49
2022-10-16T06:32:00.743Z,15.69
2022-10-16T06:34:27.726Z,15.73
2022-10-16T06:36:54.688Z,15.61
2022-10-16T06:39:21.554Z,15.82
2022-10-16T06:41:48.649Z,15.86
2022-10-16T06:44:16.288Z,15.88
2022-10-16T06:46:43.269Z,15.90
2022-10-16T06:49:10.180Z,15.99
2022-10-16T06:51:43.116Z,16.06
2022-10-16T06:54:10.963Z,16.10
2022-10-16T06:56:38.525Z,16.26
2022-10-16T06:59:05.573Z,16.31
2022-10-16T07:01:33.545Z,16.20
2022-10-16T07:04:02.920Z,16.52
2022-10-16T07:06:34.373Z,16.39
2022-10-16T07:09:07.712Z,16.62
2022-10-16T07:11:35.418Z,16.63
2022-10-16T07:14:02.588Z,16.64
2022-10-16T07:16:33.323Z,16.68
2022-10-16T07:19:03.349Z,16.68
2022-10-16T07:21:37.398Z,16.74
2022-10-16T07:24:08.498Z,16.75
2022-10-16T07:26:39.956Z,16.83
2022-10-16T07:29:14.495Z,16.84
2022-10-16T07:31:42.911Z,16.85
2022-10-16T07:34:12.055Z,16.87
2022-10-16T07:36:39.179Z,16.98
2022-10-16T07:39:06.291Z,16.99
2022-10-16T07:41:33.860Z,17.02
2022-10-16T07:44:01.591Z,17.00
2022-10-16T07:46:29.184Z,16.96
2022-10-16T07:48:56.850Z,16.99
2022-10-16T07:51:26.288Z,17.04
2022-10-16T07:53:54.527Z,17.05
2022-10-16T07:56:22.186Z,17.08
2022-10-16T07:58:51.180Z,16.90
2022-10-16T08:01:19.310Z,17.26
2022-10-16T08:03:50.667Z,17.29
2022-10-16T08:06:22.104Z,17.41
2022-10-16T08:08:52.550Z,17.57
2022-10-16T08:11:19.803Z,17.65
2022-10-16T08:13:46.867Z,17.77
2022-10-16T08:16:13.829Z,17.88
2022-10-16T08:18:42.051Z,17.94
2022-10-16T08:21:20.141Z,17.93
2022-10-16T08:23:52.858Z,17.93
2022-10-16T08:26:24.013Z,17.95
2022-10-16T08:28:52.717Z,17.96
2022-10-16T08:31:20.490Z,18.02
2022-10-16T08:33:48.661Z,18.25
2022-10-16T08:36:17.507Z,18.20
2022-10-16T08:38:47.917Z,18.59
2022-10-16T08:41:34.074Z,18.72
2022-10-16T08:44:10.712Z,18.84
2022-10-16T08:46:50.429Z,18.95
2022-10-16T08:49:18.930Z,19.14
2022-10-16T08:51:47.529Z,19.29
2022-10-16T08:54:41.861Z,19.33
2022-10-16T08:57:32.410Z,19.42
2022-10-16T09:00:10.247Z,19.54
2022-10-16T09:03:06.956Z,19.53
2022-10-16T09:06:06.413Z,19.53
2022-10-16T09:09:01.559Z,19.59
2022-10-16T09:12:02.725Z,19.66
2022-10-16T09:14:48.631Z,19.67
2022-10-16T09:17:53.858Z,19.72
2022-10-16T09:20:35.351Z,20.00
2022-10-16T09:23:31.293Z,20.17
2022-10-16T09:26:00.336Z,20.53
2022-10-16T09:28:27.731Z,20.91
2022-10-16T09:30:55.594Z,21.29
2022-10-16T09:33:29.104Z,21.47
2022-10-16T09:35:59.835Z,21.52
2022-10-16T09:38:33.969Z,21.50
2022-10-16T09:41:15.864Z,21.44
2022-10-16T09:44:25.977Z,21.53
2022-10-16T09:47:06.915Z,21.67
2022-10-16T09:49:33.876Z,21.67
2022-10-16T09:52:16.435Z,21.66
2022-10-16T09:54:59.350Z,21.58
2022-10-16T09:57:27.127Z,21.70
2022-10-16T09:59:59.555Z,21.92
2022-10-16T10:02:39.096Z,22.06
2022-10-16T10:05:18.248Z,22.61
2022-10-16T10:07:50.164Z,23.28
2022-10-16T10:10:28.578Z,23.38
2022-10-16T10:12:57.196Z,23.13
2022-10-16T10:15:25.835Z,22.73
2022-10-16T10:17:58.747Z,22.73
2022-10-16T10:20:39.145Z,22.82
2022-10-16T10:23:27.474Z,22.91
2022-10-16T10:26:03.662Z,22.89
2022-10-16T10:28:55.683Z,22.63
2022-10-16T10:31:43.307Z,22.39
2022-10-16T10:34:52.814Z,22.58
2022-10-16T10:37:52.138Z,23.08
2022-10-16T10:41:16.747Z,23.05
2022-10-16T10:44:02.304Z,23.17
2022-10-16T10:47:02.399Z,23.60
2022-10-16T10:50:12.149Z,23.77
2022-10-16T10:53:05.315Z,23.36
2022-10-16T10:55:44.102Z,23.12
2022-10-16T10:58:38.752Z,23.24
2022-10-16T11:01:19.876Z,23.43
2022-10-16T11:04:04.858Z,23.30
2022-10-16T11:09:32.955Z,23.07
2022-10-16T11:12:13.437Z,23.16
2022-10-16T11:14:55.840Z,22.95
2022-10-16T11:17:41.066Z,23.50
2022-10-16T11:20:38.443Z,24.14
2022-10-16T11:23:17.346Z,23.72
2022-10-16T11:25:48.459Z,24.01
2022-10-16T11:28:27.984Z,24.51
2022-10-16T11:31:00.397Z,25.37
2022-10-16T11:33:47.194Z,25.60
2022-10-16T11:36:21.064Z,25.23
2022-10-16T11:39:09.231Z,24.65
2022-10-16T11:41:52.627Z,23.83
2022-10-16T11:44:52.775Z,23.29
2022-10-16T11:47:59.091Z,23.23
2022-10-16T11:50:37.922Z,23.14
2022-10-16T11:53:16.435Z,23.03
2022-10-16T11:55:47.277Z,23.31
2022-10-16T11:58:41.507Z,24.58
2022-10-16T12:01:20.071Z,24.78
2022-10-16T12:04:07.503Z,24.15
2022-10-16T12:06:37.070Z,23.83
2022-10-16T12:09:05.123Z,23.50
2022-10-16T12:11:38.151Z,23.48
2022-10-16T12:14:46.924Z,23.73
2022-10-16T12:17:37.825Z,23.53
2022-10-16T12:20:13.613Z,23.43
2022-10-16T12:22:58.830Z,23.24
2022-10-16T12:25:33.118Z,23.12
2022-10-16T12:28:13.727Z,23.08
2022-10-16T12:30:43.924Z,22.79
2022-10-16T12:33:29.037Z,22.75
2022-10-16T12:35:59.047Z,22.67
2022-10-16T12:38:39.261Z,22.74
2022-10-16T12:41:10.185Z,22.63
2022-10-16T12:43:47.452Z,22.88
2022-10-16T12:46:14.271Z,22.98
2022-10-16T12:49:02.180Z,22.84
2022-10-16T12:51:32.451Z,22.98
2022-10-16T12:54:08.225Z,22.96
2022-10-16T12:57:15.675Z,23.09
2022-10-16T13:00:07.072Z,23.41
2022-10-16T13:03:12.606Z,23.58
2022-10-16T13:06:17.471Z,23.43
2022-10-16T13:09:32.361Z,23.13
2022-10-16T13:12:27.964Z,22.92
2022-10-16T13:15:27.400Z,22.84
2022-10-16T13:18:06.212Z,22.51
2022-10-16T13:20:56.636Z,22.78
2022-10-16T13:23:49.387Z,22.85
2022-10-16T13:26:38.050Z,22.87
2022-10-16T13:29:05.852Z,22.90
2022-10-16T13:31:35.177Z,23.00
2022-10-16T13:34:02.806Z,22.98
2022-10-16T13:36:51.223Z,22.93
2022-10-16T13:39:29.713Z,22.82
2022-10-16T13:42:11.371Z,22.80
2022-10-16T13:44:50.290Z,22.70
2022-10-16T13:47:30.615Z,22.61
2022-10-16T13:50:15.789Z,22.51
2022-10-16T13:52:43.454Z,22.36
2022-10-16T13:55:17.148Z,22.05
2022-10-16T13:57:45.300Z,21.67
2022-10-16T14:00:26.032Z,21.57
2022-10-16T14:03:04.639Z,21.56
2022-10-16T14:05:32.313Z,21.65
2022-10-16T14:08:01.111Z,21.55
2022-10-16T14:10:33.895Z,21.54
2022-10-16T14:13:07.679Z,21.37
2022-10-16T14:15:37.774Z,21.46
2022-10-16T14:18:05.334Z,21.42
2022-10-16T14:20:35.626Z,21.40
2022-10-16T14:23:37.133Z,21.24
2022-10-16T14:26:10.196Z,21.25
2022-10-16T14:28:41.669Z,21.28
2022-10-16T14:31:20.861Z,21.27
2022-10-16T14:33:47.902Z,20.85
2022-10-16T14:36:21.986Z,21.24
2022-10-16T14:39:02.132Z,21.19
2022-10-16T14:41:32.097Z,21.13
2022-10-16T14:44:05.245Z,21.08
2022-10-16T14:46:42.543Z,21.00
2022-10-16T14:49:12.809Z,20.97
2022-10-16T14:51:46.730Z,20.92
2022-10-16T14:54:17.324Z,20.88
2022-10-16T14:56:47.858Z,20.90
2022-10-16T14:59:33.204Z,20.85
2022-10-16T15:02:00.804Z,20.82
2022-10-16T15:04:27.873Z,20.79
2022-10-16T15:06:54.795Z,20.67
2022-10-16T15:09:21.826Z,20.75
2022-10-16T15:11:48.897Z,20.73
2022-10-16T15:16:47.674Z,20.68
2022-10-16T15:19:14.591Z,20.58
2022-10-16T15:21:41.789Z,20.60
2022-10-16T15:24:16.685Z,20.64
2022-10-16T15:26:50.210Z,20.62
2022-10-16T15:29:17.596Z,20.57
2022-10-16T15:31:44.541Z,20.53
2022-10-16T15:34:11.740Z,20.47
2022-10-16T15:36:40.657Z,20.40
2022-10-16T15:39:15.978Z,20.30
2022-10-16T15:41:44.315Z,20.17
2022-10-16T15:44:11.281Z,20.06
2022-10-16T15:46:38.328Z,19.90
2022-10-16T15:49:05.535Z,19.80
2022-10-16T15:51:34.988Z,19.73
2022-10-16T15:54:02.835Z,19.72
2022-10-16T15:56:30.269Z,19.65
2022-10-16T15:58:59.219Z,19.56
2022-10-16T16:01:26.886Z,19.44
2022-10-16T16:03:55.981Z,19.51
2022-10-16T16:06:26.926Z,19.25
2022-10-16T16:08:54.470Z,19.41
2022-10-16T16:11:24.183Z,19.41
2022-10-16T16:13:51.178Z,19.35
2022-10-16T16:16:20.898Z,19.32
2022-10-16T16:18:50.311Z,19.25
2022-10-16T16:21:17.276Z,19.19
2022-10-16T16:23:44.370Z,19.15
2022-10-16T16:26:16.427Z,19.08
2022-10-16T16:28:44.364Z,19.02
2022-10-16T16:31:11.397Z,19.01
2022-10-16T16:33:38.933Z,18.92
2022-10-16T16:36:11.621Z,18.84
2022-10-16T16:38:40.385Z,18.79
2022-10-16T16:41:19.973Z,18.74
2022-10-16T16:43:48.451Z,18.63
2022-10-16T16:46:16.297Z,18.54
2022-10-16T16:48:43.389Z,18.49
2022-10-16T16:51:16.868Z,18.42
2022-10-16T16:53:46.904Z,18.36
2022-10-16T16:56:14.772Z,18.24
2022-10-16T16:58:42.320Z,18.20
2022-10-16T17:01:20.360Z,18.08
2022-10-16T17:03:52.735Z,18.09
2022-10-16T17:06:32.413Z,18.08
2022-10-16T17:09:03.495Z,17.95
2022-10-16T17:11:30.850Z,17.92
2022-10-16T17:14:01.776Z,17.83
2022-10-16T17:16:34.555Z,17.76
2022-10-16T17:19:04.493Z,17.69
2022-10-16T17:21:33.085Z,17.46
2022-10-16T17:24:01.759Z,17.62
2022-10-16T17:26:29.619Z,17.51
2022-10-16T17:29:01.098Z,17.53
2022-10-16T17:31:31.846Z,17.50
2022-10-16T17:34:02.306Z,17.32
2022-10-16T17:36:34.062Z,17.43
2022-10-16T17:39:05.171Z,17.37
2022-10-16T17:41:34.319Z,17.28
2022-10-16T17:44:02.915Z,17.29
2022-10-16T17:46:30.281Z,16.58
2022-10-16T17:48:57.973Z,17.30
2022-10-16T17:51:30.380Z,17.28
2022-10-16T17:54:00.703Z,17.23
2022-10-16T17:56:28.205Z,17.16
2022-10-16T17:59:01.951Z,17.08
2022-10-16T18:01:37.125Z,17.10
2022-10-16T18:04:13.024Z,17.11
2022-10-16T18:06:42.853Z,17.12
2022-10-16T18:09:14.127Z,17.09
2022-10-16T18:11:41.710Z,17.10
2022-10-16T18:14:08.990Z,17.07
2022-10-16T18:16:36.909Z,17.05
2022-10-16T18:19:04.519Z,17.03
2022-10-16T18:21:32.304Z,17.05
2022-10-16T18:24:01.385Z,17.04
2022-10-16T18:26:28.931Z,17.00
2022-10-16T18:28:57.854Z,17.02
2022-10-16T18:31:26.603Z,16.97
2022-10-16T18:33:55.789Z,16.97
2022-10-16T18:36:29.600Z,16.96
2022-10-16T18:38:57.500Z,16.95
2022-10-16T18:41:25.898Z,16.94
2022-10-16T18:43:53.956Z,16.96
2022-10-16T18:46:24.526Z,16.94
2022-10-16T18:48:54.184Z,16.90
2022-10-16T18:51:35.229Z,16.90
2022-10-16T18:54:08.309Z,16.88
2022-10-16T18:56:35.422Z,16.83
2022-10-16T18:59:05.498Z,16.80
2022-10-16T19:01:35.032Z,16.77
2022-10-16T19:04:05.927Z,16.75
2022-10-16T19:06:39.049Z,16.74
2022-10-16T19:09:06.872Z,16.71
2022-10-16T19:11:39.192Z,16.63
2022-10-16T19:14:10.830Z,16.62
2022-10-16T19:16:39.001Z,16.23
2022-10-16T19:19:08.800Z,16.58
2022-10-16T19:21:39.707Z,16.60
2022-10-16T19:24:08.528Z,16.61
2022-10-16T19:26:38.163Z,16.54
2022-10-16T19:29:09.239Z,16.49
2022-10-16T19:31:36.611Z,16.54
2022-10-16T19:34:04.663Z,16.15
2022-10-16T19:36:35.625Z,16.49
2022-10-16T19:39:11.755Z,16.51
2022-10-16T19:41:38.945Z,16.50
2022-10-16T19:44:08.984Z,16.51
2022-10-16T19:46:36.737Z,16.49
2022-10-16T19:49:12.191Z,16.52
2022-10-16T19:51:40.088Z,16.46
2022-10-16T19:54:13.067Z,16.45
2022-10-16T19:56:41.369Z,16.43
2022-10-16T19:59:12.755Z,16.42
2022-10-16T20:01:40.134Z,16.42
2022-10-16T20:04:07.545Z,16.46
2022-10-16T20:06:35.150Z,16.44
2022-10-16T20:09:02.852Z,16.44
2022-10-16T20:11:33.691Z,16.47
2022-10-16T20:14:01.347Z,16.47
2022-10-16T20:16:29.818Z,16.46
2022-10-16T20:18:57.573Z,16.46
2022-10-16T20:21:29.006Z,16.43
2022-10-16T20:23:56.942Z,16.41
2022-10-16T20:26:26.057Z,16.36
2022-10-16T20:28:54.839Z,16.32
2022-10-16T20:31:25.422Z,16.32
2022-10-16T20:33:55.975Z,16.31
2022-10-16T20:36:25.554Z,16.31
2022-10-16T20:38:53.559Z,16.33
2022-10-16T20:41:21.196Z,16.29
2022-10-16T20:43:51.179Z,16.30
2022-10-16T20:46:25.732Z,16.31
2022-10-16T20:48:54.298Z,16.30
2022-10-16T20:51:27.499Z,16.29
2022-10-16T20:54:03.650Z,16.31
2022-10-16T20:56:33.787Z,16.32
2022-10-16T20:59:01.351Z,16.32
2022-10-16T21:01:31.251Z,16.30
2022-10-16T21:04:05.456Z,16.30
2022-10-16T21:06:35.905Z,16.33
2022-10-16T21:09:06.508Z,16.01
2022-10-16T21:11:36.828Z,16.21
2022-10-16T21:14:07.972Z,16.20
2022-10-16T21:16:35.397Z,16.15
2022-10-16T21:19:03.030Z,16.11
2022-10-16T21:21:33.264Z,16.12
2022-10-16T21:24:01.564Z,16.10
2022-10-16T21:26:30.066Z,16.04
2022-10-16T21:29:03.843Z,16.02
2022-10-16T21:31:31.883Z,15.92
2022-10-16T21:33:59.770Z,15.84
2022-10-16T21:36:29.937Z,15.80
2022-10-16T21:39:21.183Z,15.76
2022-10-16T21:41:51.062Z,15.20
2022-10-16T21:44:20.043Z,15.66
2022-10-16T21:46:47.505Z,15.64
2022-10-16T21:49:17.468Z,15.56
2022-10-16T21:51:48.172Z,15.50
2022-10-16T21:54:21.130Z,15.44
2022-10-16T21:56:48.507Z,15.41
2022-10-16T21:59:15.917Z,15.38
2022-10-16T22:01:43.829Z,15.34
2022-10-16T22:04:13.053Z,15.32
2022-10-16T22:06:41.122Z,15.28
2022-10-16T22:09:09.354Z,15.26
2022-10-16T22:11:38.061Z,15.22
2022-10-16T22:14:11.583Z,15.20
2022-10-16T22:16:39.628Z,15.16
2022-10-16T22:19:07.565Z,15.14
2022-10-16T22:21:36.727Z,15.15
2022-10-16T22:24:04.595Z,15.13
2022-10-16T22:26:31.973Z,15.12
2022-10-16T22:28:59.425Z,15.12
2022-10-16T22:31:26.867Z,15.13
2022-10-16T22:33:58.688Z,15.16
2022-10-16T22:36:26.710Z,15.14
2022-10-16T22:38:54.459Z,15.11
2022-10-16T22:41:23.034Z,15.08
2022-10-16T22:43:50.632Z,15.06
2022-10-16T22:46:27.845Z,15.05
2022-10-16T22:48:56.200Z,15.09
2022-10-16T22:51:25.424Z,15.09
2022-10-16T22:53:52.790Z,15.09
2022-10-16T22:56:21.534Z,15.05
2022-10-16T22:58:48.664Z,15.02
2022-10-16T23:01:40.604Z,14.88
2022-10-16T23:04:09.320Z,14.86
2022-10-16T23:06:36.814Z,14.81
2022-10-16T23:09:04.515Z,14.77
2022-10-16T23:11:32.279Z,14.74
2022-10-16T23:14:00.084Z,14.75
2022-10-16T23:16:27.403Z,14.70
2022-10-16T23:18:54.846Z,14.70
2022-10-16T23:21:25.186Z,14.71
2022-10-16T23:23:53.712Z,14.67
2022-10-16T23:26:24.602Z,14.65
2022-10-16T23:28:52.031Z,14.26
2022-10-16T23:31:19.793Z,14.60
2022-10-16T23:33:47.102Z,14.60
2022-10-16T23:36:17.747Z,14.54
2022-10-16T23:38:46.530Z,14.54
2022-10-16T23:41:14.801Z,14.55
2022-10-16T23:43:42.234Z,14.57
2022-10-16T23:46:11.015Z,14.55
2022-10-16T23:48:38.800Z,14.54
2022-10-16T23:51:07.266Z,14.49
2022-10-16T23:53:34.857Z,14.49
2022-10-16T23:56:02.387Z,14.50
2022-10-16T23:58:29.875Z,14.47
